Terminal Aerodrome Forecast
Issued by NWS

Home | Current Version | Previous Version | Text Only | Print | Product List | Glossary On
Versions: 1 2 3 4 5 6 7 8 9 10 11 12 13 14 15 16 17 18 19 20 21 22 23 24 25 26 27 28 29
000
FTUS46 KSEW 272100 AAB
TAFSEA
TAF AMD
KSEA 272102Z 2721/2824 21007KT 2SM -DZ BR OVC003
     FM272300 21006KT 2SM BR VCSH BKN005 OVC010
     FM281100 11003KT 4SM BR OVC008
     FM281400 04003KT P6SM OVC015
     FM282100 23003KT P6SM BKN200=

USA.gov is the U.S. government's official web portal to all federal, state and local government web resources and services.